Airfield :
LOGIN :

Register | Disclaimer

   EN    FR    IT 

 










Legend :    VFR   Marginal VFR   IFR   Intensive IFR   Very Intensive IFR
Visi :
Ceiling :
>= 8 km
>= 3000ft
5 to 8 km
1000 to 3000 ft
1500m to 5 km
500 to 1000 ft
800 to 1500m
200 to 500 ft
< 800m
< 200 ft
Symbols :   Thunderstorms  Fog  Heavy snow  Heavy precipitations  Wind > 20 kt
SIGMETs :     Misc.  Thunderstorms  Icing  Turbulence  Mountain Waves  Volcanic Ashes






- Airport Elevation : 268 ft
- IATA code : BFS


EGAA - Belfast Aldergrove

CURRENT METAR :
  • 191720Z 21014KT 9999 BKN011 BKN016 09/08 Q1001

EXPIRED METARs :
  • 191650Z 21016KT 9999 BKN010 BKN014 09/08 Q1001
  • 191620Z 21016KT 9999 -RA BKN010 BKN016 09/08 Q1001
  • 191550Z 21015G28KT 9999 -RA SCT009 BKN019 09/08 Q1002
  • 191520Z 21013KT 9999 -RA SCT010 BKN015 09/08 Q1002
  • 191450Z 20014G25KT 9999 -RADZ FEW009 BKN013 09/08 Q1003

TAF TAF EGAA
Valid from the 19 at 18:00 until the 20 at 18:00 UTC


191659Z 1918/2018 21012KT 9999 FEW015 SCT025
TEMPO 1918/1923 22018G28KT 7000 RA -RADZ BKN012
PROB40
TEMPO 1918/1923 BKN008
PROB30
TEMPO 1923/2001 2000 BR BKN002
TEMPO 2001/2009 7000 RA BKN014
PROB30
TEMPO 2001/2004 3000 +RA BKN007
BECMG 2003/2006 27008KT
BECMG 2009/2012 26020G32KT
TEMPO 2011/2018 3000 SHRASN SCT008 BKN012



MET'MAP, your aeronautical weather chart ! - Copyright ORBIFLY December 2007 - Disclaimer

ORBIFLY MET'MAP TEAM :

Programming & Development : Alexandra Zaïnal
Concept & original design : Baudouin d'Aumeries
Assistance for programming : Marc-Olivier Méhu
Technical & hardware support : Manuel Goepfert

Contact : metmap@orbifly.com




SOURCES & CREDITS :

   NOAA